Time;durP1;ratioP1;P1;durP2;ratioP2;P2;SDS_P1;SDS_P2;PMS_P1;PMS_P2;Temp;Humidity;BMP_temperature;BMP_pressure;BME280_temperature;BME280_humidity;BME280_pressure;Samples;Min_cycle;Max_cycle;Signal;HPM_P1;HPM_P2
2023/08/22 00:00:29;;;;;;;3.70;2.25;;;;;;;;;;4409115;32;66675;-60
2023/08/22 00:03:17;;;;;;;4.20;2.45;;;;;;;;;;4409340;32;67522;-61
2023/08/22 00:06:03;;;;;;;2.42;1.98;;;;;;;;;;4398173;32;59941;-61
2023/08/22 00:08:50;;;;;;;4.18;2.40;;;;;;;;;;4411804;32;70717;-60
2023/08/22 00:11:36;;;;;;;3.10;2.30;;;;;;;;;;4410512;32;69316;-60
2023/08/22 00:14:23;;;;;;;5.00;2.70;;;;;;;;;;4410605;32;67722;-60
2023/08/22 00:17:10;;;;;;;7.78;2.50;;;;;;;;;;4398415;32;71601;-60
2023/08/22 00:19:57;;;;;;;3.17;2.37;;;;;;;;;;4409027;32;66976;-61
2023/08/22 00:22:43;;;;;;;2.50;2.15;;;;;;;;;;4410603;32;69212;-60
2023/08/22 00:25:30;;;;;;;4.25;2.28;;;;;;;;;;4410435;32;67553;-60
2023/08/22 00:28:17;;;;;;;3.55;2.10;;;;;;;;;;4408905;32;71690;-60
2023/08/22 00:31:04;;;;;;;3.25;2.12;;;;;;;;;;4409961;32;64661;-61
2023/08/22 00:33:50;;;;;;;2.67;2.03;;;;;;;;;;4410448;32;66584;-60
2023/08/22 00:36:37;;;;;;;3.75;2.42;;;;;;;;;;4410701;32;60246;-61
2023/08/22 00:39:24;;;;;;;3.70;2.62;;;;;;;;;;4408661;32;71206;-59
2023/08/22 00:42:12;;;;;;;3.90;2.35;;;;;;;;;;4397189;32;68464;-60
2023/08/22 00:44:58;;;;;;;3.28;2.50;;;;;;;;;;4387957;32;67257;-60
2023/08/22 00:47:45;;;;;;;5.20;2.60;;;;;;;;;;4399222;32;59883;-60
2023/08/22 00:50:33;;;;;;;5.22;2.55;;;;;;;;;;4398646;32;69679;-61
2023/08/22 00:53:20;;;;;;;5.05;2.62;;;;;;;;;;4397998;32;70073;-60
2023/08/22 00:56:06;;;;;;;3.30;2.30;;;;;;;;;;4399850;32;67661;-60
2023/08/22 00:58:53;;;;;;;3.53;2.55;;;;;;;;;;4398521;32;71707;-60
2023/08/22 01:01:40;;;;;;;;;;;;;;;;;;4398889;32;65773;-59
2023/08/22 01:04:26;;;;;;;3.15;2.42;;;;;;;;;;4398686;32;67688;-60
2023/08/22 01:07:30;;;;;;;4.05;2.60;;;;;;;;;;4400049;32;60287;-61
2023/08/22 01:10:25;;;;;;;3.62;2.55;;;;;;;;;;4398148;32;69556;-60
2023/08/22 01:13:17;;;;;;;3.60;2.90;;;;;;;;;;4400378;32;64964;-59
2023/08/22 01:16:05;;;;;;;4.00;2.30;;;;;;;;;;4387768;32;67821;-60
2023/08/22 01:18:52;;;;;;;2.83;2.45;;;;;;;;;;4398851;32;58895;-61
2023/08/22 01:21:53;;;;;;;4.22;2.55;;;;;;;;;;4398236;32;69456;-59
2023/08/22 01:24:40;;;;;;;4.12;2.42;;;;;;;;;;4398235;32;69368;-60
2023/08/22 01:27:27;;;;;;;;;;;;;;;;;;4398566;32;67378;-60
2023/08/22 01:30:25;;;;;;;2.90;2.35;;;;;;;;;;4397821;32;70810;-61
2023/08/22 01:33:21;;;;;;;3.95;2.35;;;;;;;;;;4398268;32;64836;-60
2023/08/22 01:36:09;;;;;;;3.10;2.40;;;;;;;;;;4399569;32;67508;-60
2023/08/22 01:38:57;;;;;;;3.90;2.65;;;;;;;;;;4376935;32;67370;-60
2023/08/22 01:41:43;;;;;;;4.18;2.85;;;;;;;;;;4398048;32;71728;-60
2023/08/22 01:44:30;;;;;;;3.40;2.55;;;;;;;;;;4399011;32;66138;-60
2023/08/22 01:47:17;;;;;;;4.43;2.55;;;;;;;;;;4398059;32;67630;-61
2023/08/22 01:50:09;;;;;;;3.37;2.05;;;;;;;;;;4386751;32;59797;-60
2023/08/22 01:52:57;;;;;;;3.95;2.62;;;;;;;;;;4399003;32;70742;-60
2023/08/22 01:55:45;;;;;;;5.80;2.80;;;;;;;;;;4397124;32;68095;-61
2023/08/22 01:58:34;;;;;;;4.53;3.08;;;;;;;;;;4400148;32;67681;-61
2023/08/22 02:01:22;;;;;;;3.92;2.87;;;;;;;;;;4402063;32;59033;-60
2023/08/22 02:04:08;;;;;;;5.30;2.95;;;;;;;;;;4397600;32;69287;-61
2023/08/22 02:06:55;;;;;;;5.57;3.37;;;;;;;;;;4397243;32;69943;-60
2023/08/22 02:09:45;;;;;;;5.28;3.15;;;;;;;;;;4387119;32;66819;-60
2023/08/22 02:12:36;;;;;;;4.85;3.12;;;;;;;;;;4386798;32;71352;-60
2023/08/22 02:15:38;;;;;;;6.28;3.60;;;;;;;;;;4399173;32;65637;-60
2023/08/22 02:19:18;;;;;;;6.12;3.47;;;;;;;;;;4398858;32;68298;-61
2023/08/22 02:23:15;;;;;;;5.82;3.85;;;;;;;;;;4398039;32;60436;-61
2023/08/22 02:26:45;;;;;;;8.52;3.90;;;;;;;;;;4397520;32;71617;-61
2023/08/22 02:30:14;;;;;;;8.18;4.07;;;;;;;;;;4394309;32;65876;-61
2023/08/22 02:33:10;;;;;;;5.95;4.18;;;;;;;;;;4398549;32;67661;-59
2023/08/22 02:35:56;;;;;;;7.47;4.35;;;;;;;;;;4399127;32;59810;-60
2023/08/22 02:38:43;;;;;;;8.18;4.78;;;;;;;;;;4397487;32;69519;-60
2023/08/22 02:41:29;;;;;;;;;;;;;;;;;;4397727;32;69321;-60
2023/08/22 02:44:17;;;;;;;5.05;4.25;;;;;;;;;;4399014;32;66856;-61
2023/08/22 02:47:03;;;;;;;;;;;;;;;;;;4397545;32;71385;-60
2023/08/22 02:49:52;;;;;;;6.05;3.87;;;;;;;;;;4386843;32;66276;-60
2023/08/22 02:52:41;;;;;;;6.22;4.07;;;;;;;;;;4398810;32;67583;-61
2023/08/22 02:55:34;;;;;;;5.85;3.92;;;;;;;;;;4397366;32;67583;-61
2023/08/22 02:58:27;;;;;;;7.18;4.37;;;;;;;;;;4387007;32;71805;-60
2023/08/22 03:01:27;;;;;;;7.72;5.70;;;;;;;;;;4397135;32;66256;-60
2023/08/22 03:04:45;;;;;;;;;;;;;;;;;;;;;
2023/08/22 03:08:21;;;;;;;7.32;4.50;;;;;;;;;;4384924;32;58805;-61
2023/08/22 03:12:05;;;;;;;9.07;4.28;;;;;;;;;;4392118;32;69439;-61
2023/08/22 03:15:14;;;;;;;6.82;3.87;;;;;;;;;;4398762;32;69784;-60
2023/08/22 03:18:38;;;;;;;;;;;;;;;;;;;;;
2023/08/22 03:23:08;;;;;;;;;;;;;;;;;;;;;
2023/08/22 03:27:29;;;;;;;7.70;3.58;;;;;;;;;;4391732;32;71396;-60
2023/08/22 03:31:42;;;;;;;;;;;;;;;;;;;;;
2023/08/22 03:35:57;;;;;;;7.87;4.50;;;;;;;;;;4366601;32;68205;-61
2023/08/22 03:39:42;;;;;;;8.25;4.93;;;;;;;;;;4391343;32;69999;-62
2023/08/22 03:42:44;;;;;;;9.05;4.85;;;;;;;;;;4396125;32;65887;-60
2023/08/22 03:45:50;;;;;;;9.27;6.12;;;;;;;;;;4398065;32;67841;-61
2023/08/22 03:48:39;;;;;;;7.93;5.15;;;;;;;;;;4397000;32;60340;-60
2023/08/22 03:51:32;;;;;;;7.72;5.05;;;;;;;;;;4396549;32;70716;-61
2023/08/22 03:54:19;;;;;;;9.82;5.43;;;;;;;;;;4398157;32;69306;-60
2023/08/22 03:57:06;;;;;;;6.55;4.85;;;;;;;;;;4398457;32;67488;-60
2023/08/22 03:59:54;;;;;;;9.88;5.70;;;;;;;;;;4397052;32;60040;-60
2023/08/22 04:02:43;;;;;;;8.00;5.60;;;;;;;;;;4385072;32;71046;-59
2023/08/22 04:05:30;;;;;;;8.10;5.85;;;;;;;;;;4397636;32;69223;-65
2023/08/22 04:08:16;;;;;;;;;;;;;;;;;;4402618;32;67606;-63
2023/08/22 04:11:03;;;;;;;9.03;5.83;;;;;;;;;;4402452;32;71385;-61
2023/08/22 04:13:49;;;;;;;7.18;5.45;;;;;;;;;;4397198;32;66161;-60
2023/08/22 04:16:37;;;;;;;8.30;5.75;;;;;;;;;;4396736;32;67835;-61
2023/08/22 04:19:26;;;;;;;11.93;6.22;;;;;;;;;;4399099;32;60211;-59
2023/08/22 04:22:16;;;;;;;11.73;6.60;;;;;;;;;;4400548;32;70699;-61
2023/08/22 04:25:11;;;;;;;8.40;5.90;;;;;;;;;;4398973;32;64822;-60
2023/08/22 04:28:00;;;;;;;10.10;6.55;;;;;;;;;;4388021;32;66877;-60
2023/08/22 04:30:47;;;;;;;9.48;6.25;;;;;;;;;;4399918;32;59111;-61
2023/08/22 04:33:32;;;;;;;9.23;6.28;;;;;;;;;;3847414;37;43823;-61
2023/08/22 04:36:21;;;;;;;10.77;6.32;;;;;;;;;;4399021;32;59695;-61
2023/08/22 04:39:08;;;;;;;9.10;6.37;;;;;;;;;;4411159;32;69564;-60
2023/08/22 04:41:59;;;;;;;10.60;6.50;;;;;;;;;;4398053;32;69241;-60
2023/08/22 04:44:56;;;;;;;10.45;6.15;;;;;;;;;;4399955;32;66726;-61
2023/08/22 04:47:47;;;;;;;9.10;5.78;;;;;;;;;;4410267;32;71053;-60
2023/08/22 04:50:33;;;;;;;8.45;5.80;;;;;;;;;;4410808;32;64967;-60
2023/08/22 04:53:22;;;;;;;8.52;5.22;;;;;;;;;;4408927;32;67950;-59
2023/08/22 04:56:14;;;;;;;10.68;6.07;;;;;;;;;;4409871;32;60167;-61
2023/08/22 04:59:02;;;;;;;11.45;6.00;;;;;;;;;;4409306;32;71989;-60
2023/08/22 05:01:56;;;;;;;11.00;5.95;;;;;;;;;;4399060;32;65629;-61
2023/08/22 05:04:44;;;;;;;9.45;5.85;;;;;;;;;;4410451;32;66574;-60
2023/08/22 05:07:34;;;;;;;9.00;5.40;;;;;;;;;;4409550;32;59213;-61
2023/08/22 05:10:21;;;;;;;9.88;5.40;;;;;;;;;;4397734;32;71231;-61
2023/08/22 05:13:07;;;;;;;9.52;5.68;;;;;;;;;;4410428;32;68304;-60
2023/08/22 05:15:55;;;;;;;7.40;4.95;;;;;;;;;;4410787;32;66892;-60
2023/08/22 05:18:47;;;;;;;9.35;5.53;;;;;;;;;;4409219;32;72002;-60
2023/08/22 05:21:42;;;;;;;8.40;5.62;;;;;;;;;;4409633;32;65943;-61
2023/08/22 05:24:32;;;;;;;8.50;5.18;;;;;;;;;;4410624;32;69355;-61
2023/08/22 05:27:24;;;;;;;9.98;6.00;;;;;;;;;;4399075;32;67712;-60
2023/08/22 05:30:15;;;;;;;9.13;5.53;;;;;;;;;;4410271;32;70479;-61
2023/08/22 05:33:04;;;;;;;9.38;5.05;;;;;;;;;;4409980;32;65791;-60
2023/08/22 05:35:53;;;;;;;8.05;5.25;;;;;;;;;;4398827;32;66875;-60
2023/08/22 05:38:41;;;;;;;6.95;4.85;;;;;;;;;;4410599;32;60188;-60
2023/08/22 05:41:36;;;;;;;8.27;5.35;;;;;;;;;;4409360;32;70427;-58
2023/08/22 05:44:32;;;;;;;9.88;5.55;;;;;;;;;;4401885;32;68048;-59
2023/08/22 05:47:32;;;;;;;7.90;4.80;;;;;;;;;;4398579;32;67532;-61
2023/08/22 05:50:35;;;;;;;8.63;5.35;;;;;;;;;;4398950;32;60080;-60
2023/08/22 05:53:26;;;;;;;7.78;5.15;;;;;;;;;;4388061;32;71213;-60
2023/08/22 05:56:13;;;;;;;7.65;5.05;;;;;;;;;;4399112;32;68370;-60
2023/08/22 05:59:03;;;;;;;7.60;5.28;;;;;;;;;;4401947;32;67769;-60
2023/08/22 06:01:52;;;;;;;8.65;5.00;;;;;;;;;;4399649;32;71409;-61
2023/08/22 06:04:41;;;;;;;8.18;4.72;;;;;;;;;;4377317;32;64898;-59
2023/08/22 06:07:42;;;;;;;9.20;5.32;;;;;;;;;;4398581;32;67550;-59
2023/08/22 06:10:37;;;;;;;7.37;5.07;;;;;;;;;;4399972;32;60226;-60
2023/08/22 06:31:08;;;;;;;7.72;4.30;;;;;;;;;;4399435;32;71346;-59
2023/08/22 06:34:28;;;;;;;7.47;4.00;;;;;;;;;;4343125;32;68967;-61
2023/08/22 06:37:41;;;;;;;9.25;4.03;;;;;;;;;;4368089;32;66760;-61
2023/08/22 06:40:30;;;;;;;6.47;4.50;;;;;;;;;;4368993;32;71721;-59
2023/08/22 06:43:19;;;;;;;5.75;3.83;;;;;;;;;;4367356;32;65875;-60
2023/08/22 06:46:07;;;;;;;5.97;4.15;;;;;;;;;;4367961;32;67807;-61
2023/08/22 06:49:14;;;;;;;7.73;4.20;;;;;;;;;;4368832;32;66893;-61
2023/08/22 06:52:00;;;;;;;5.85;4.03;;;;;;;;;;4367494;32;71577;-59
2023/08/22 06:54:47;;;;;;;7.72;4.43;;;;;;;;;;4368177;32;65037;-60
2023/08/22 06:57:36;;;;;;;5.35;3.40;;;;;;;;;;4368963;32;67608;-59
2023/08/22 07:00:25;;;;;;;7.12;3.83;;;;;;;;;;4369237;32;61078;-60
2023/08/22 07:03:14;;;;;;;5.95;4.22;;;;;;;;;;4368563;32;70618;-59
2023/08/22 07:06:02;;;;;;;6.40;4.10;;;;;;;;;;4356956;32;69386;-59
2023/08/22 07:08:51;;;;;;;4.68;3.45;;;;;;;;;;4368914;32;67528;-60
2023/08/22 07:11:37;;;;;;;6.00;4.20;;;;;;;;;;4368929;32;58950;-62
2023/08/22 07:14:26;;;;;;;5.32;3.58;;;;;;;;;;4369398;32;69481;-60
2023/08/22 07:17:18;;;;;;;5.03;3.40;;;;;;;;;;4367514;32;69556;-60
2023/08/22 07:20:16;;;;;;;5.53;3.25;;;;;;;;;;4368452;32;67663;-61
2023/08/22 07:23:10;;;;;;;5.62;3.30;;;;;;;;;;4367017;32;71463;-60
2023/08/22 07:26:05;;;;;;;7.78;3.60;;;;;;;;;;4367406;32;66281;-61
2023/08/22 07:29:07;;;;;;;5.30;3.12;;;;;;;;;;4368305;32;66606;-61
2023/08/22 07:31:59;;;;;;;5.47;3.28;;;;;;;;;;4369225;32;60047;-60
2023/08/22 07:34:47;;;;;;;7.35;3.62;;;;;;;;;;4396558;32;71055;-60
2023/08/22 07:37:48;;;;;;;5.78;3.20;;;;;;;;;;4397033;32;66284;-61
2023/08/22 07:40:42;;;;;;;5.23;3.27;;;;;;;;;;4398933;32;66553;-60
2023/08/22 07:43:33;;;;;;;4.87;3.08;;;;;;;;;;4387280;32;59089;-60
2023/08/22 07:46:28;;;;;;;5.43;3.55;;;;;;;;;;4387311;32;70230;-60
2023/08/22 07:49:27;;;;;;;5.40;2.87;;;;;;;;;;4386667;32;69968;-60
2023/08/22 07:52:19;;;;;;;5.18;3.25;;;;;;;;;;4397152;32;66407;-61
2023/08/22 07:55:11;;;;;;;5.55;3.42;;;;;;;;;;4398451;32;71842;-61
2023/08/22 07:58:08;;;;;;;5.15;3.50;;;;;;;;;;4397277;32;64896;-61
2023/08/22 08:00:57;;;;;;;5.72;3.65;;;;;;;;;;4398788;32;67554;-62
2023/08/22 08:03:44;;;;;;;7.43;4.25;;;;;;;;;;4396513;32;68357;-61
2023/08/22 08:06:36;;;;;;;10.45;4.53;;;;;;;;;;4398808;32;70522;-61
2023/08/22 08:09:22;;;;;;;8.15;4.03;;;;;;;;;;4398665;32;65491;-61
2023/08/22 08:12:16;;;;;;;7.87;3.95;;;;;;;;;;4397975;32;68334;-61
2023/08/22 08:15:08;;;;;;;6.55;5.15;;;;;;;;;;4398229;32;59130;-60
2023/08/22 08:17:59;;;;;;;7.57;5.12;;;;;;;;;;4396928;32;72017;-61
2023/08/22 08:20:51;;;;;;;8.45;5.55;;;;;;;;;;4386838;32;68430;-61
2023/08/22 08:23:44;;;;;;;10.20;6.22;;;;;;;;;;4397158;32;66869;-60
2023/08/22 08:26:41;;;;;;;9.23;5.70;;;;;;;;;;4397804;32;71967;-61
2023/08/22 08:29:32;;;;;;;12.80;7.68;;;;;;;;;;4398853;32;69591;-62
2023/08/22 08:32:24;;;;;;;14.10;6.70;;;;;;;;;;4399471;32;69095;-61
2023/08/22 08:35:16;;;;;;;9.98;6.30;;;;;;;;;;4385946;32;68237;-61
2023/08/22 08:38:03;;;;;;;9.05;5.82;;;;;;;;;;4397340;32;71555;-61
2023/08/22 08:41:03;;;;;;;9.15;5.80;;;;;;;;;;4397990;32;65853;-61
2023/08/22 08:43:56;;;;;;;9.48;5.10;;;;;;;;;;4396939;32;67503;-62
2023/08/22 08:47:06;;;;;;;6.80;4.60;;;;;;;;;;4397340;32;59376;-62
2023/08/22 08:50:04;;;;;;;8.30;4.68;;;;;;;;;;4386176;32;71142;-61
2023/08/22 08:52:52;;;;;;;5.85;4.43;;;;;;;;;;4385589;32;67718;-61
2023/08/22 08:55:46;;;;;;;8.65;4.53;;;;;;;;;;4396569;32;67517;-61
2023/08/22 08:58:39;;;;;;;5.80;3.90;;;;;;;;;;4396659;32;60167;-61
2023/08/22 09:01:27;;;;;;;5.07;3.35;;;;;;;;;;4397964;32;70788;-60
2023/08/22 09:04:22;;;;;;;6.72;3.70;;;;;;;;;;4396465;32;69240;-61
2023/08/22 09:07:09;;;;;;;6.93;4.30;;;;;;;;;;4397795;32;66687;-61
2023/08/22 09:10:04;;;;;;;7.03;3.50;;;;;;;;;;4386692;32;71657;-61
2023/08/22 09:12:53;;;;;;;7.40;3.67;;;;;;;;;;4396991;32;65757;-60
2023/08/22 09:15:49;;;;;;;5.57;3.67;;;;;;;;;;4400715;32;66691;-61
2023/08/22 09:18:44;;;;;;;5.23;3.70;;;;;;;;;;4403039;32;58965;-60
2023/08/22 09:21:37;;;;;;;5.80;3.65;;;;;;;;;;4405953;32;71793;-61
2023/08/22 09:24:36;;;;;;;7.22;3.53;;;;;;;;;;4401515;32;65121;-61
2023/08/22 09:27:30;;;;;;;6.22;3.50;;;;;;;;;;4400369;32;67823;-61
2023/08/22 09:30:27;;;;;;;5.50;3.53;;;;;;;;;;4379053;32;60219;-61
2023/08/22 09:33:20;;;;;;;5.82;3.30;;;;;;;;;;4400360;32;70809;-61
2023/08/22 09:36:11;;;;;;;5.10;3.65;;;;;;;;;;4405608;32;68329;-61
2023/08/22 09:39:31;;;;;;;7.87;4.10;;;;;;;;;;4400362;32;66716;-62
